Terminal Aerodrome Forecast
Issued by NWS

Home | Current Version | Previous Version | Text Only | Print | Product List | Glossary On
Versions: 1 2 3 4 5 6 7 8 9 10 11 12 13 14 15 16 17 18 19 20 21 22 23 24 25 26 27 28 29 30 31 32 33 34 35 36 37 38 39 40 41 42 43 44 45 46 47 48 49 50
000
FTUS43 KMKX 250028 AAA
TAFUES
TAF AMD
KUES 250028Z 2500/2524 10009KT P6SM VCSH SCT035 OVC050
      TEMPO 2500/2502 -SHRA BKN035 OVC040
     FM250300 08008KT P6SM OVC040
     FM251200 08011G18KT P6SM OVC030
     FM251300 08011G19KT P6SM RA OVC020
     FM251500 08012G21KT 3SM RA OVC010
     FM251600 08012G22KT 2SM RA OVC015
     FM252100 06013G22KT 6SM RA OVC050
     FM252300 06013G20KT P6SM OVC080=

USA.gov is the U.S. government's official web portal to all federal, state and local government web resources and services.